sensor_id;sensor_type;location;lat;lon;timestamp;pressure;altitude;pressure_sealevel;temperature;humidity
41234;BME280;26968;42.686;23.352;2024-03-17T00:01:31;95473.78;;;8.28;62.35
41234;BME280;26968;42.686;23.352;2024-03-17T00:03:56;95478.94;;;8.28;62.97
41234;BME280;26968;42.686;23.352;2024-03-17T00:06:22;95479.72;;;8.29;61.32
41234;BME280;26968;42.686;23.352;2024-03-17T00:08:47;95481.66;;;8.27;62.68
41234;BME280;26968;42.686;23.352;2024-03-17T00:11:13;95477.84;;;8.23;61.96
41234;BME280;26968;42.686;23.352;2024-03-17T00:13:38;95481.53;;;8.20;61.88
41234;BME280;26968;42.686;23.352;2024-03-17T00:16:04;95465.13;;;8.13;62.18
41234;BME280;26968;42.686;23.352;2024-03-17T00:18:30;95474.19;;;8.09;61.98
41234;BME280;26968;42.686;23.352;2024-03-17T00:20:55;95478.66;;;8.15;63.05
41234;BME280;26968;42.686;23.352;2024-03-17T00:23:21;95470.59;;;8.10;62.67
41234;BME280;26968;42.686;23.352;2024-03-17T00:25:47;95469.63;;;8.11;62.43
41234;BME280;26968;42.686;23.352;2024-03-17T00:28:13;95473.81;;;8.12;62.25
41234;BME280;26968;42.686;23.352;2024-03-17T00:30:38;95472.84;;;8.13;61.89
41234;BME280;26968;42.686;23.352;2024-03-17T00:33:03;95473.06;;;8.03;62.05
41234;BME280;26968;42.686;23.352;2024-03-17T00:35:29;95475.47;;;8.05;62.77
41234;BME280;26968;42.686;23.352;2024-03-17T00:37:55;95468.53;;;7.97;62.70
41234;BME280;26968;42.686;23.352;2024-03-17T00:40:21;95470.66;;;7.94;62.64
41234;BME280;26968;42.686;23.352;2024-03-17T00:42:47;95454.91;;;7.81;62.93
41234;BME280;26968;42.686;23.352;2024-03-17T00:45:12;95469.72;;;7.79;62.85
41234;BME280;26968;42.686;23.352;2024-03-17T00:47:38;95470.72;;;7.45;63.87
41234;BME280;26968;42.686;23.352;2024-03-17T00:50:04;95465.41;;;7.55;64.16
41234;BME280;26968;42.686;23.352;2024-03-17T00:52:32;95472.63;;;7.67;63.92
41234;BME280;26968;42.686;23.352;2024-03-17T00:54:57;95455.91;;;7.55;64.62
41234;BME280;26968;42.686;23.352;2024-03-17T00:57:23;95475.34;;;7.66;64.73
41234;BME280;26968;42.686;23.352;2024-03-17T00:59:49;95471.69;;;7.60;63.80
41234;BME280;26968;42.686;23.352;2024-03-17T01:02:15;95453.34;;;7.47;64.28
41234;BME280;26968;42.686;23.352;2024-03-17T01:04:44;95462.66;;;7.56;64.39
41234;BME280;26968;42.686;23.352;2024-03-17T01:07:10;95476.34;;;7.57;65.26
41234;BME280;26968;42.686;23.352;2024-03-17T01:09:37;95467.50;;;7.51;65.13
41234;BME280;26968;42.686;23.352;2024-03-17T01:12:02;95470.41;;;7.48;64.90
41234;BME280;26968;42.686;23.352;2024-03-17T01:14:28;95472.97;;;7.56;64.48
41234;BME280;26968;42.686;23.352;2024-03-17T01:16:54;95456.53;;;7.49;64.79
41234;BME280;26968;42.686;23.352;2024-03-17T01:19:20;95477.16;;;7.41;65.15
41234;BME280;26968;42.686;23.352;2024-03-17T01:21:46;95457.34;;;7.33;65.61
41234;BME280;26968;42.686;23.352;2024-03-17T01:24:12;95458.66;;;7.37;65.96
41234;BME280;26968;42.686;23.352;2024-03-17T01:26:38;95447.88;;;7.26;66.01
41234;BME280;26968;42.686;23.352;2024-03-17T01:29:03;95458.50;;;7.31;65.18
41234;BME280;26968;42.686;23.352;2024-03-17T01:31:29;95469.13;;;7.44;64.76
41234;BME280;26968;42.686;23.352;2024-03-17T01:33:54;95467.50;;;7.43;65.42
41234;BME280;26968;42.686;23.352;2024-03-17T01:36:21;95458.66;;;7.37;65.31
41234;BME280;26968;42.686;23.352;2024-03-17T01:38:46;95476.03;;;7.44;65.25
41234;BME280;26968;42.686;23.352;2024-03-17T01:41:12;95466.69;;;7.43;65.67
41234;BME280;26968;42.686;23.352;2024-03-17T01:43:39;95474.59;;;7.41;65.82
41234;BME280;26968;42.686;23.352;2024-03-17T01:46:05;95468.81;;;7.31;65.26
41234;BME280;26968;42.686;23.352;2024-03-17T01:48:31;95480.88;;;7.30;65.78
41234;BME280;26968;42.686;23.352;2024-03-17T01:50:57;95450.13;;;7.13;65.78
41234;BME280;26968;42.686;23.352;2024-03-17T01:53:23;95479.09;;;7.15;66.78
41234;BME280;26968;42.686;23.352;2024-03-17T01:55:52;95474.72;;;6.99;67.16
41234;BME280;26968;42.686;23.352;2024-03-17T01:58:20;95466.19;;;6.98;67.39
41234;BME280;26968;42.686;23.352;2024-03-17T02:00:48;95470.22;;;7.01;67.08
41234;BME280;26968;42.686;23.352;2024-03-17T02:03:13;95465.56;;;6.96;67.49
41234;BME280;26968;42.686;23.352;2024-03-17T02:05:39;95463.28;;;6.93;67.65
41234;BME280;26968;42.686;23.352;2024-03-17T02:08:05;95469.69;;;6.89;67.62
41234;BME280;26968;42.686;23.352;2024-03-17T02:10:32;95473.69;;;6.76;67.76
41234;BME280;26968;42.686;23.352;2024-03-17T02:12:58;95475.16;;;6.78;67.87
41234;BME280;26968;42.686;23.352;2024-03-17T02:15:25;95471.63;;;6.79;68.24
41234;BME280;26968;42.686;23.352;2024-03-17T02:17:50;95473.53;;;6.77;67.63
41234;BME280;26968;42.686;23.352;2024-03-17T02:20:16;95474.84;;;6.81;67.36
41234;BME280;26968;42.686;23.352;2024-03-17T02:22:43;95482.53;;;6.73;68.10
41234;BME280;26968;42.686;23.352;2024-03-17T02:25:09;95468.31;;;6.45;69.05
41234;BME280;26968;42.686;23.352;2024-03-17T02:27:37;95475.22;;;6.44;69.43
41234;BME280;26968;42.686;23.352;2024-03-17T02:30:03;95472.84;;;6.51;68.74
41234;BME280;26968;42.686;23.352;2024-03-17T02:32:35;95455.59;;;6.35;68.73
41234;BME280;26968;42.686;23.352;2024-03-17T02:35:00;95467.97;;;6.40;69.35
41234;BME280;26968;42.686;23.352;2024-03-17T02:37:26;95476.72;;;6.55;69.06
41234;BME280;26968;42.686;23.352;2024-03-17T02:39:52;95474.09;;;6.47;69.00
41234;BME280;26968;42.686;23.352;2024-03-17T02:42:18;95470.16;;;6.26;69.86
41234;BME280;26968;42.686;23.352;2024-03-17T02:44:44;95471.69;;;6.11;70.16
41234;BME280;26968;42.686;23.352;2024-03-17T02:47:10;95452.44;;;6.15;69.85
41234;BME280;26968;42.686;23.352;2024-03-17T02:49:36;95454.06;;;6.16;70.39
41234;BME280;26968;42.686;23.352;2024-03-17T02:52:09;95451.78;;;6.05;69.90
41234;BME280;26968;42.686;23.352;2024-03-17T02:54:38;95462.72;;;6.07;70.74
41234;BME280;26968;42.686;23.352;2024-03-17T02:57:05;95465.44;;;6.14;70.52
41234;BME280;26968;42.686;23.352;2024-03-17T02:59:34;95466.59;;;6.19;70.14
41234;BME280;26968;42.686;23.352;2024-03-17T03:02:00;95460.31;;;6.14;70.13
41234;BME280;26968;42.686;23.352;2024-03-17T03:04:26;95457.28;;;6.10;70.18
41234;BME280;26968;42.686;23.352;2024-03-17T03:06:52;95430.19;;;5.90;70.47
41234;BME280;26968;42.686;23.352;2024-03-17T03:09:18;95465.31;;;6.15;70.30
41234;BME280;26968;42.686;23.352;2024-03-17T03:11:51;95459.19;;;6.08;70.51
41234;BME280;26968;42.686;23.352;2024-03-17T03:14:17;95461.75;;;6.08;69.78
41234;BME280;26968;42.686;23.352;2024-03-17T03:16:43;95462.53;;;5.83;70.75
41234;BME280;26968;42.686;23.352;2024-03-17T03:19:09;95468.28;;;5.77;71.30
41234;BME280;26968;42.686;23.352;2024-03-17T03:21:35;95447.13;;;5.83;71.30
41234;BME280;26968;42.686;23.352;2024-03-17T03:24:01;95466.97;;;5.98;71.17
41234;BME280;26968;42.686;23.352;2024-03-17T03:26:26;95451.00;;;5.87;70.67
41234;BME280;26968;42.686;23.352;2024-03-17T03:28:53;95460.47;;;5.86;71.60
41234;BME280;26968;42.686;23.352;2024-03-17T03:31:20;95470.66;;;5.96;70.88
41234;BME280;26968;42.686;23.352;2024-03-17T03:33:47;95456.84;;;5.97;70.87
41234;BME280;26968;42.686;23.352;2024-03-17T03:36:14;95455.75;;;5.99;70.64
41234;BME280;26968;42.686;23.352;2024-03-17T03:38:40;95468.00;;;6.06;70.57
41234;BME280;26968;42.686;23.352;2024-03-17T03:41:13;95475.16;;;5.94;71.31
41234;BME280;26968;42.686;23.352;2024-03-17T03:43:39;95470.84;;;5.77;71.43
41234;BME280;26968;42.686;23.352;2024-03-17T03:46:05;95470.56;;;5.80;71.54
41234;BME280;26968;42.686;23.352;2024-03-17T03:48:31;95477.59;;;5.78;71.90
41234;BME280;26968;42.686;23.352;2024-03-17T03:50:57;95457.50;;;5.73;72.02
41234;BME280;26968;42.686;23.352;2024-03-17T03:53:24;95481.69;;;5.88;71.04
41234;BME280;26968;42.686;23.352;2024-03-17T03:55:49;95486.06;;;5.96;71.59
41234;BME280;26968;42.686;23.352;2024-03-17T03:58:15;95480.88;;;5.88;70.53
41234;BME280;26968;42.686;23.352;2024-03-17T04:00:41;95489.63;;;5.95;70.67
41234;BME280;26968;42.686;23.352;2024-03-17T04:03:07;95496.50;;;5.94;71.41
41234;BME280;26968;42.686;23.352;2024-03-17T04:05:32;95491.09;;;5.80;72.00
41234;BME280;26968;42.686;23.352;2024-03-17T04:08:00;95484.38;;;5.61;72.21
41234;BME280;26968;42.686;23.352;2024-03-17T04:10:25;95491.56;;;5.57;73.23
41234;BME280;26968;42.686;23.352;2024-03-17T04:12:51;95496.94;;;5.64;72.73
41234;BME280;26968;42.686;23.352;2024-03-17T04:15:17;95501.66;;;5.77;72.28
41234;BME280;26968;42.686;23.352;2024-03-17T04:17:43;95500.38;;;5.81;71.42
41234;BME280;26968;42.686;23.352;2024-03-17T04:20:09;95491.41;;;5.77;71.72
41234;BME280;26968;42.686;23.352;2024-03-17T04:22:38;95502.25;;;5.71;71.96
41234;BME280;26968;42.686;23.352;2024-03-17T04:25:04;95507.38;;;5.71;72.23
41234;BME280;26968;42.686;23.352;2024-03-17T04:27:30;95504.97;;;5.69;72.07
41234;BME280;26968;42.686;23.352;2024-03-17T04:29:58;95515.75;;;5.73;71.86
41234;BME280;26968;42.686;23.352;2024-03-17T04:32:24;95512.88;;;5.76;72.18
41234;BME280;26968;42.686;23.352;2024-03-17T04:34:50;95511.94;;;5.77;71.07
41234;BME280;26968;42.686;23.352;2024-03-17T04:37:16;95520.59;;;5.76;71.43
41234;BME280;26968;42.686;23.352;2024-03-17T04:39:43;95513.75;;;5.66;71.97
41234;BME280;26968;42.686;23.352;2024-03-17T04:42:10;95518.84;;;5.58;71.69
41234;BME280;26968;42.686;23.352;2024-03-17T04:44:36;95531.81;;;5.57;72.68
41234;BME280;26968;42.686;23.352;2024-03-17T04:47:03;95525.59;;;5.59;72.06
41234;BME280;26968;42.686;23.352;2024-03-17T04:49:42;95528.53;;;5.64;72.39
41234;BME280;26968;42.686;23.352;2024-03-17T04:52:10;95524.28;;;5.55;72.00
41234;BME280;26968;42.686;23.352;2024-03-17T04:54:36;95529.91;;;5.59;72.11
41234;BME280;26968;42.686;23.352;2024-03-17T04:57:02;95540.34;;;5.57;73.10
41234;BME280;26968;42.686;23.352;2024-03-17T04:59:28;95545.84;;;5.62;72.09
41234;BME280;26968;42.686;23.352;2024-03-17T05:01:54;95547.81;;;5.51;72.50
41234;BME280;26968;42.686;23.352;2024-03-17T05:04:19;95550.34;;;5.69;72.51
41234;BME280;26968;42.686;23.352;2024-03-17T05:06:45;95553.28;;;5.74;71.92
41234;BME280;26968;42.686;23.352;2024-03-17T05:09:18;95558.56;;;5.90;71.78
41234;BME280;26968;42.686;23.352;2024-03-17T05:11:44;95552.81;;;5.96;71.72
41234;BME280;26968;42.686;23.352;2024-03-17T05:14:11;95559.19;;;6.10;71.84
41234;BME280;26968;42.686;23.352;2024-03-17T05:16:37;95567.91;;;6.17;71.63
41234;BME280;26968;42.686;23.352;2024-03-17T05:19:03;95568.56;;;6.19;71.11
41234;BME280;26968;42.686;23.352;2024-03-17T05:21:29;95571.66;;;6.30;70.59
41234;BME280;26968;42.686;23.352;2024-03-17T05:23:57;95569.75;;;6.32;71.04
41234;BME280;26968;42.686;23.352;2024-03-17T05:26:23;95569.09;;;6.30;70.94
41234;BME280;26968;42.686;23.352;2024-03-17T05:28:50;95577.31;;;6.34;70.40
41234;BME280;26968;42.686;23.352;2024-03-17T05:31:16;95575.59;;;6.43;70.53
41234;BME280;26968;42.686;23.352;2024-03-17T05:33:43;95558.88;;;6.39;70.37
41234;BME280;26968;42.686;23.352;2024-03-17T05:36:09;95566.31;;;6.50;69.45
41234;BME280;26968;42.686;23.352;2024-03-17T05:38:35;95580.06;;;6.66;69.83
41234;BME280;26968;42.686;23.352;2024-03-17T05:41:05;95568.50;;;6.70;69.17
41234;BME280;26968;42.686;23.352;2024-03-17T05:43:35;95565.94;;;6.79;69.34
41234;BME280;26968;42.686;23.352;2024-03-17T05:46:05;95573.56;;;6.96;68.43
41234;BME280;26968;42.686;23.352;2024-03-17T05:48:34;95568.44;;;6.96;68.71
41234;BME280;26968;42.686;23.352;2024-03-17T05:51:04;95562.66;;;7.02;68.19
41234;BME280;26968;42.686;23.352;2024-03-17T05:53:29;95559.59;;;7.07;67.29
41234;BME280;26968;42.686;23.352;2024-03-17T05:55:58;95563.63;;;7.10;67.58
41234;BME280;26968;42.686;23.352;2024-03-17T05:58:24;95566.22;;;7.10;67.33
41234;BME280;26968;42.686;23.352;2024-03-17T06:00:50;95560.88;;;6.95;67.83
41234;BME280;26968;42.686;23.352;2024-03-17T06:03:15;95572.16;;;7.10;68.01
41234;BME280;26968;42.686;23.352;2024-03-17T06:05:44;95564.75;;;7.07;66.82
41234;BME280;26968;42.686;23.352;2024-03-17T06:08:12;95549.91;;;6.85;67.23
41234;BME280;26968;42.686;23.352;2024-03-17T06:10:42;95569.09;;;7.06;66.88
41234;BME280;26968;42.686;23.352;2024-03-17T06:13:08;95560.72;;;6.96;67.38
41234;BME280;26968;42.686;23.352;2024-03-17T06:15:37;95578.09;;;7.02;66.97
41234;BME280;26968;42.686;23.352;2024-03-17T06:18:03;95583.75;;;7.22;66.93
41234;BME280;26968;42.686;23.352;2024-03-17T06:20:29;95580.06;;;7.25;66.04
41234;BME280;26968;42.686;23.352;2024-03-17T06:22:55;95582.16;;;7.21;65.86
41234;BME280;26968;42.686;23.352;2024-03-17T06:25:21;95585.56;;;7.38;65.26
41234;BME280;26968;42.686;23.352;2024-03-17T06:27:52;95584.41;;;7.16;65.82
41234;BME280;26968;42.686;23.352;2024-03-17T06:30:18;95579.78;;;7.28;65.84
41234;BME280;26968;42.686;23.352;2024-03-17T06:32:44;95593.16;;;7.48;65.83
41234;BME280;26968;42.686;23.352;2024-03-17T06:35:11;95593.25;;;7.14;65.19
41234;BME280;26968;42.686;23.352;2024-03-17T06:37:37;95589.56;;;7.16;65.68
41234;BME280;26968;42.686;23.352;2024-03-17T06:40:04;95605.84;;;7.33;65.05
41234;BME280;26968;42.686;23.352;2024-03-17T06:42:30;95569.44;;;7.20;65.19
41234;BME280;26968;42.686;23.352;2024-03-17T06:44:56;95594.91;;;7.39;65.02
41234;BME280;26968;42.686;23.352;2024-03-17T06:47:21;95602.47;;;7.49;64.79
41234;BME280;26968;42.686;23.352;2024-03-17T06:49:47;95602.16;;;7.44;64.44
41234;BME280;26968;42.686;23.352;2024-03-17T06:52:12;95575.59;;;7.43;64.23
41234;BME280;26968;42.686;23.352;2024-03-17T06:54:39;95599.75;;;7.58;64.07
41234;BME280;26968;42.686;23.352;2024-03-17T06:57:05;95582.38;;;7.44;64.09
41234;BME280;26968;42.686;23.352;2024-03-17T06:59:34;95606.53;;;7.67;64.48
41234;BME280;26968;42.686;23.352;2024-03-17T07:02:00;95597.69;;;7.70;64.23
41234;BME280;26968;42.686;23.352;2024-03-17T07:04:26;95586.25;;;7.56;63.52
41234;BME280;26968;42.686;23.352;2024-03-17T07:06:52;95589.16;;;7.78;64.57
41234;BME280;26968;42.686;23.352;2024-03-17T07:09:17;95599.44;;;8.10;63.56
41234;BME280;26968;42.686;23.352;2024-03-17T07:11:43;95608.31;;;7.99;64.01
41234;BME280;26968;42.686;23.352;2024-03-17T07:14:10;95578.69;;;7.95;63.54
41234;BME280;26968;42.686;23.352;2024-03-17T07:16:35;95600.88;;;8.12;63.01
41234;BME280;26968;42.686;23.352;2024-03-17T07:19:01;95598.00;;;8.24;62.85
41234;BME280;26968;42.686;23.352;2024-03-17T07:21:27;95603.97;;;8.32;62.95
41234;BME280;26968;42.686;23.352;2024-03-17T07:23:52;95605.56;;;8.33;62.67
41234;BME280;26968;42.686;23.352;2024-03-17T07:26:18;95594.44;;;8.49;62.01
41234;BME280;26968;42.686;23.352;2024-03-17T07:28:44;95597.59;;;8.67;61.30
41234;BME280;26968;42.686;23.352;2024-03-17T07:31:10;95594.50;;;8.80;60.66
41234;BME280;26968;42.686;23.352;2024-03-17T07:33:36;95584.50;;;8.85;60.72
41234;BME280;26968;42.686;23.352;2024-03-17T07:36:01;95604.06;;;9.10;60.59
41234;BME280;26968;42.686;23.352;2024-03-17T07:38:29;95578.47;;;9.01;59.71
41234;BME280;26968;42.686;23.352;2024-03-17T07:41:06;95581.53;;;8.96;58.80
41234;BME280;26968;42.686;23.352;2024-03-17T07:43:34;95574.50;;;8.82;60.37
41234;BME280;26968;42.686;23.352;2024-03-17T07:46:01;95609.22;;;9.02;60.72
41234;BME280;26968;42.686;23.352;2024-03-17T07:48:28;95610.25;;;8.93;60.57
41234;BME280;26968;42.686;23.352;2024-03-17T07:51:03;95588.38;;;8.73;59.11
41234;BME280;26968;42.686;23.352;2024-03-17T07:53:33;95602.25;;;8.80;59.74
41234;BME280;26968;42.686;23.352;2024-03-17T07:55:59;95605.25;;;8.92;59.51
41234;BME280;26968;42.686;23.352;2024-03-17T07:58:25;95596.59;;;8.76;59.78
41234;BME280;26968;42.686;23.352;2024-03-17T08:00:52;95607.66;;;8.93;59.88
41234;BME280;26968;42.686;23.352;2024-03-17T08:03:20;95577.09;;;8.82;59.75
41234;BME280;26968;42.686;23.352;2024-03-17T08:05:49;95605.09;;;8.93;61.37
41234;BME280;26968;42.686;23.352;2024-03-17T08:08:16;95605.59;;;9.20;60.54
41234;BME280;26968;42.686;23.352;2024-03-17T08:10:42;95602.34;;;9.26;59.48
41234;BME280;26968;42.686;23.352;2024-03-17T08:13:07;95605.25;;;9.31;58.76
41234;BME280;26968;42.686;23.352;2024-03-17T08:15:34;95604.59;;;9.29;58.84
41234;BME280;26968;42.686;23.352;2024-03-17T08:17:59;95606.50;;;9.35;58.29
41234;BME280;26968;42.686;23.352;2024-03-17T08:20:25;95598.72;;;9.43;58.50
41234;BME280;26968;42.686;23.352;2024-03-17T08:22:50;95598.13;;;9.33;58.90
41234;BME280;26968;42.686;23.352;2024-03-17T08:25:16;95599.84;;;9.40;58.34
41234;BME280;26968;42.686;23.352;2024-03-17T08:27:41;95593.88;;;9.40;59.18
41234;BME280;26968;42.686;23.352;2024-03-17T08:30:08;95592.03;;;9.48;58.85
41234;BME280;26968;42.686;23.352;2024-03-17T08:32:35;95592.28;;;9.39;58.50
41234;BME280;26968;42.686;23.352;2024-03-17T08:35:00;95596.31;;;9.41;59.28
41234;BME280;26968;42.686;23.352;2024-03-17T08:37:26;95572.56;;;9.46;58.27
41234;BME280;26968;42.686;23.352;2024-03-17T08:39:52;95592.31;;;9.62;58.05
41234;BME280;26968;42.686;23.352;2024-03-17T08:42:17;95564.63;;;9.70;57.68
41234;BME280;26968;42.686;23.352;2024-03-17T08:44:46;95581.41;;;9.74;56.76
41234;BME280;26968;42.686;23.352;2024-03-17T08:47:13;95568.22;;;9.84;57.20
41234;BME280;26968;42.686;23.352;2024-03-17T08:49:38;95569.63;;;9.72;57.64
41234;BME280;26968;42.686;23.352;2024-03-17T08:52:04;95571.88;;;9.75;55.88
41234;BME280;26968;42.686;23.352;2024-03-17T08:54:29;95560.72;;;9.74;56.22
41234;BME280;26968;42.686;23.352;2024-03-17T08:56:55;95562.75;;;10.02;55.80
41234;BME280;26968;42.686;23.352;2024-03-17T08:59:20;95552.00;;;9.75;56.97
41234;BME280;26968;42.686;23.352;2024-03-17T09:01:47;95557.94;;;9.99;56.18
41234;BME280;26968;42.686;23.352;2024-03-17T09:04:13;95553.72;;;9.83;56.91
41234;BME280;26968;42.686;23.352;2024-03-17T09:06:38;95555.78;;;9.87;56.87
41234;BME280;26968;42.686;23.352;2024-03-17T09:09:04;95561.34;;;10.14;56.31
41234;BME280;26968;42.686;23.352;2024-03-17T09:11:31;95557.75;;;10.23;55.89
41234;BME280;26968;42.686;23.352;2024-03-17T09:13:56;95554.72;;;10.34;55.47
41234;BME280;26968;42.686;23.352;2024-03-17T09:16:24;95549.22;;;10.37;54.40
41234;BME280;26968;42.686;23.352;2024-03-17T09:18:51;95549.81;;;10.39;55.84
41234;BME280;26968;42.686;23.352;2024-03-17T09:21:17;95547.25;;;10.54;54.78
41234;BME280;26968;42.686;23.352;2024-03-17T09:23:43;95533.53;;;10.39;55.29
41234;BME280;26968;42.686;23.352;2024-03-17T09:26:09;95548.94;;;10.62;55.95
41234;BME280;26968;42.686;23.352;2024-03-17T09:28:38;95522.53;;;10.51;54.45
41234;BME280;26968;42.686;23.352;2024-03-17T09:31:04;95533.75;;;10.58;54.62
41234;BME280;26968;42.686;23.352;2024-03-17T09:33:33;95524.22;;;10.74;53.79
41234;BME280;26968;42.686;23.352;2024-03-17T09:36:01;95527.56;;;10.89;54.22
41234;BME280;26968;42.686;23.352;2024-03-17T09:38:28;95517.31;;;11.17;52.26
41234;BME280;26968;42.686;23.352;2024-03-17T09:40:54;95514.56;;;11.18;51.23
41234;BME280;26968;42.686;23.352;2024-03-17T09:43:24;95511.44;;;11.23;50.94
41234;BME280;26968;42.686;23.352;2024-03-17T09:45:53;95518.41;;;11.44;50.59
41234;BME280;26968;42.686;23.352;2024-03-17T09:48:26;95514.72;;;11.74;50.37
41234;BME280;26968;42.686;23.352;2024-03-17T09:51:04;95519.84;;;11.89;48.28
41234;BME280;26968;42.686;23.352;2024-03-17T09:53:31;95515.88;;;12.21;48.62
41234;BME280;26968;42.686;23.352;2024-03-17T09:56:11;95517.59;;;12.42;45.42
41234;BME280;26968;42.686;23.352;2024-03-17T09:58:37;95511.28;;;12.57;46.20
41234;BME280;26968;42.686;23.352;2024-03-17T10:01:03;95517.53;;;12.63;44.16
41234;BME280;26968;42.686;23.352;2024-03-17T10:06:29;95514.34;;;13.15;42.34
41234;BME280;26968;42.686;23.352;2024-03-17T10:08:56;95521.13;;;13.16;41.39
41234;BME280;26968;42.686;23.352;2024-03-17T10:11:23;95513.84;;;12.92;42.10
41234;BME280;26968;42.686;23.352;2024-03-17T10:14:05;95509.56;;;13.19;41.06
41234;BME280;26968;42.686;23.352;2024-03-17T10:16:40;95514.94;;;13.17;38.42
41234;BME280;26968;42.686;23.352;2024-03-17T10:19:12;95514.81;;;13.38;39.39
41234;BME280;26968;42.686;23.352;2024-03-17T10:21:40;95492.59;;;13.29;40.45
41234;BME280;26968;42.686;23.352;2024-03-17T10:29:23;95500.41;;;13.36;39.44
41234;BME280;26968;42.686;23.352;2024-03-17T10:31:53;95508.41;;;13.28;40.26
41234;BME280;26968;42.686;23.352;2024-03-17T10:34:19;95500.41;;;13.36;39.48
41234;BME280;26968;42.686;23.352;2024-03-17T10:36:48;95513.25;;;13.64;40.48
41234;BME280;26968;42.686;23.352;2024-03-17T10:39:27;95510.25;;;13.54;39.75
41234;BME280;26968;42.686;23.352;2024-03-17T10:42:00;95509.78;;;13.30;39.81
41234;BME280;26968;42.686;23.352;2024-03-17T10:44:32;95509.00;;;13.36;38.43
41234;BME280;26968;42.686;23.352;2024-03-17T10:47:00;95510.00;;;13.29;38.96
41234;BME280;26968;42.686;23.352;2024-03-17T10:49:34;95498.03;;;13.41;36.07
41234;BME280;26968;42.686;23.352;2024-03-17T10:52:01;95484.03;;;13.29;33.46
41234;BME280;26968;42.686;23.352;2024-03-17T10:54:28;95475.97;;;13.11;34.68
41234;BME280;26968;42.686;23.352;2024-03-17T10:57:01;95491.56;;;13.17;32.57
41234;BME280;26968;42.686;23.352;2024-03-17T10:59:40;95496.38;;;13.20;35.14
41234;BME280;26968;42.686;23.352;2024-03-17T11:04:43;95478.56;;;13.11;36.91
41234;BME280;26968;42.686;23.352;2024-03-17T11:07:16;95494.38;;;13.16;37.90
41234;BME280;26968;42.686;23.352;2024-03-17T11:09:43;95482.25;;;13.62;36.84
41234;BME280;26968;42.686;23.352;2024-03-17T11:12:45;95490.03;;;14.08;36.87
41234;BME280;26968;42.686;23.352;2024-03-17T11:18:27;95444.47;;;13.66;35.84
41234;BME280;26968;42.686;23.352;2024-03-17T11:23:41;95481.66;;;13.87;37.43
41234;BME280;26968;42.686;23.352;2024-03-17T11:26:07;95480.66;;;14.01;38.19
41234;BME280;26968;42.686;23.352;2024-03-17T11:31:36;95475.19;;;14.42;40.54
41234;BME280;26968;42.686;23.352;2024-03-17T11:34:03;95455.72;;;14.58;37.23
41234;BME280;26968;42.686;23.352;2024-03-17T11:36:36;95458.06;;;15.48;35.56
41234;BME280;26968;42.686;23.352;2024-03-17T11:41:40;95455.31;;;16.73;32.28
41234;BME280;26968;42.686;23.352;2024-03-17T11:46:45;95446.69;;;16.17;31.10
41234;BME280;26968;42.686;23.352;2024-03-17T11:51:51;95441.00;;;15.46;34.47
41234;BME280;26968;42.686;23.352;2024-03-17T11:54:19;95432.38;;;15.21;35.15
41234;BME280;26968;42.686;23.352;2024-03-17T11:56:50;95442.31;;;15.30;34.85
41234;BME280;26968;42.686;23.352;2024-03-17T11:59:20;95439.19;;;15.78;34.46
41234;BME280;26968;42.686;23.352;2024-03-17T12:01:46;95418.88;;;16.05;32.79
41234;BME280;26968;42.686;23.352;2024-03-17T12:04:16;95439.00;;;16.77;31.93
41234;BME280;26968;42.686;23.352;2024-03-17T12:06:46;95442.25;;;17.21;30.92
41234;BME280;26968;42.686;23.352;2024-03-17T12:09:20;95449.66;;;16.76;30.96
41234;BME280;26968;42.686;23.352;2024-03-17T12:12:03;95438.34;;;15.84;32.73
41234;BME280;26968;42.686;23.352;2024-03-17T12:14:30;95421.94;;;15.77;33.06
41234;BME280;26968;42.686;23.352;2024-03-17T12:16:57;95419.25;;;16.08;32.45
41234;BME280;26968;42.686;23.352;2024-03-17T12:19:24;95425.91;;;15.86;32.15
41234;BME280;26968;42.686;23.352;2024-03-17T12:21:52;95435.47;;;15.67;32.81
41234;BME280;26968;42.686;23.352;2024-03-17T12:24:24;95444.50;;;15.90;32.89
41234;BME280;26968;42.686;23.352;2024-03-17T12:26:51;95437.13;;;15.87;33.34
41234;BME280;26968;42.686;23.352;2024-03-17T12:29:34;95423.59;;;15.96;33.59
41234;BME280;26968;42.686;23.352;2024-03-17T12:32:05;95445.06;;;16.35;33.80
41234;BME280;26968;42.686;23.352;2024-03-17T12:34:32;95449.47;;;16.77;32.79
41234;BME280;26968;42.686;23.352;2024-03-17T12:37:00;95439.50;;;17.16;31.93
41234;BME280;26968;42.686;23.352;2024-03-17T12:39:33;95441.28;;;17.45;32.01
41234;BME280;26968;42.686;23.352;2024-03-17T12:42:06;95447.66;;;17.08;32.22
41234;BME280;26968;42.686;23.352;2024-03-17T12:44:57;95436.69;;;17.29;32.98
41234;BME280;26968;42.686;23.352;2024-03-17T12:49:53;95445.34;;;17.30;33.25
41234;BME280;26968;42.686;23.352;2024-03-17T12:52:20;95436.91;;;16.68;35.21
41234;BME280;26968;42.686;23.352;2024-03-17T12:57:44;95446.09;;;15.72;38.83
41234;BME280;26968;42.686;23.352;2024-03-17T13:00:28;95440.50;;;15.37;39.62
41234;BME280;26968;42.686;23.352;2024-03-17T13:02:57;95435.34;;;14.93;40.15
41234;BME280;26968;42.686;23.352;2024-03-17T13:05:23;95445.66;;;14.68;40.95
41234;BME280;26968;42.686;23.352;2024-03-17T13:07:50;95423.50;;;14.52;42.21
41234;BME280;26968;42.686;23.352;2024-03-17T13:10:17;95441.03;;;14.76;41.88
41234;BME280;26968;42.686;23.352;2024-03-17T13:12:44;95431.75;;;14.42;41.48
41234;BME280;26968;42.686;23.352;2024-03-17T13:15:15;95435.16;;;14.30;42.15
41234;BME280;26968;42.686;23.352;2024-03-17T13:17:42;95438.22;;;14.14;42.28
41234;BME280;26968;42.686;23.352;2024-03-17T13:20:15;95421.22;;;13.91;43.20
41234;BME280;26968;42.686;23.352;2024-03-17T13:22:44;95419.44;;;13.92;43.79
41234;BME280;26968;42.686;23.352;2024-03-17T13:25:18;95429.63;;;13.93;44.80
41234;BME280;26968;42.686;23.352;2024-03-17T13:27:47;95419.06;;;13.68;44.81
41234;BME280;26968;42.686;23.352;2024-03-17T13:30:17;95428.44;;;13.76;43.86
41234;BME280;26968;42.686;23.352;2024-03-17T13:32:44;95435.47;;;13.69;44.54